sensor_id;sensor_type;location;lat;lon;timestamp;P1;durP1;ratioP1;P2;durP2;ratioP2
11568;SDS011;5840;46.894;15.542;2023-02-15T00:01:38;29.57;;;24.70;;
11568;SDS011;5840;46.894;15.542;2023-02-15T00:04:07;26.30;;;23.43;;
11568;SDS011;5840;46.894;15.542;2023-02-15T00:06:35;28.33;;;24.33;;
11568;SDS011;5840;46.894;15.542;2023-02-15T00:09:02;30.03;;;25.90;;
11568;SDS011;5840;46.894;15.542;2023-02-15T00:11:30;28.67;;;25.33;;
11568;SDS011;5840;46.894;15.542;2023-02-15T00:14:08;30.27;;;24.00;;
11568;SDS011;5840;46.894;15.542;2023-02-15T00:16:36;35.50;;;28.03;;
11568;SDS011;5840;46.894;15.542;2023-02-15T00:19:04;31.90;;;25.43;;
11568;SDS011;5840;46.894;15.542;2023-02-15T00:21:34;29.07;;;23.67;;
11568;SDS011;5840;46.894;15.542;2023-02-15T00:24:02;31.13;;;26.60;;
11568;SDS011;5840;46.894;15.542;2023-02-15T00:26:31;30.10;;;26.27;;
11568;SDS011;5840;46.894;15.542;2023-02-15T00:28:58;29.40;;;25.53;;
11568;SDS011;5840;46.894;15.542;2023-02-15T00:31:26;25.83;;;23.10;;
11568;SDS011;5840;46.894;15.542;2023-02-15T00:33:55;28.77;;;25.67;;
11568;SDS011;5840;46.894;15.542;2023-02-15T00:36:28;28.47;;;23.30;;
11568;SDS011;5840;46.894;15.542;2023-02-15T00:38:55;32.87;;;27.50;;
11568;SDS011;5840;46.894;15.542;2023-02-15T00:41:21;29.00;;;24.17;;
11568;SDS011;5840;46.894;15.542;2023-02-15T00:43:49;30.50;;;26.47;;
11568;SDS011;5840;46.894;15.542;2023-02-15T00:46:16;29.27;;;25.00;;
11568;SDS011;5840;46.894;15.542;2023-02-15T00:48:43;34.50;;;28.83;;
11568;SDS011;5840;46.894;15.542;2023-02-15T00:51:10;26.90;;;23.97;;
11568;SDS011;5840;46.894;15.542;2023-02-15T00:53:38;30.77;;;26.40;;
11568;SDS011;5840;46.894;15.542;2023-02-15T00:56:05;32.83;;;26.57;;
11568;SDS011;5840;46.894;15.542;2023-02-15T00:58:32;33.73;;;28.20;;
11568;SDS011;5840;46.894;15.542;2023-02-15T01:01:02;33.10;;;27.57;;
11568;SDS011;5840;46.894;15.542;2023-02-15T01:03:30;32.70;;;26.97;;
11568;SDS011;5840;46.894;15.542;2023-02-15T01:05:57;31.20;;;25.93;;
11568;SDS011;5840;46.894;15.542;2023-02-15T01:08:24;36.40;;;28.93;;
11568;SDS011;5840;46.894;15.542;2023-02-15T01:10:53;32.00;;;27.30;;
11568;SDS011;5840;46.894;15.542;2023-02-15T01:13:20;32.23;;;27.03;;
11568;SDS011;5840;46.894;15.542;2023-02-15T01:15:52;27.60;;;24.63;;
11568;SDS011;5840;46.894;15.542;2023-02-15T01:18:19;26.87;;;23.63;;
11568;SDS011;5840;46.894;15.542;2023-02-15T01:20:46;29.17;;;26.03;;
11568;SDS011;5840;46.894;15.542;2023-02-15T01:23:14;32.70;;;28.23;;
11568;SDS011;5840;46.894;15.542;2023-02-15T01:25:41;32.80;;;28.40;;
11568;SDS011;5840;46.894;15.542;2023-02-15T01:28:09;35.40;;;28.60;;
11568;SDS011;5840;46.894;15.542;2023-02-15T01:30:37;33.13;;;27.40;;
11568;SDS011;5840;46.894;15.542;2023-02-15T01:33:04;36.70;;;32.07;;
11568;SDS011;5840;46.894;15.542;2023-02-15T01:35:31;35.87;;;29.80;;
11568;SDS011;5840;46.894;15.542;2023-02-15T01:37:58;29.13;;;25.97;;
11568;SDS011;5840;46.894;15.542;2023-02-15T01:40:25;31.43;;;26.83;;
11568;SDS011;5840;46.894;15.542;2023-02-15T01:42:53;33.83;;;26.87;;
11568;SDS011;5840;46.894;15.542;2023-02-15T01:45:24;32.37;;;27.50;;
11568;SDS011;5840;46.894;15.542;2023-02-15T01:47:54;32.57;;;27.17;;
11568;SDS011;5840;46.894;15.542;2023-02-15T01:50:28;27.70;;;24.70;;
11568;SDS011;5840;46.894;15.542;2023-02-15T01:53:01;31.87;;;26.70;;
11568;SDS011;5840;46.894;15.542;2023-02-15T01:55:33;32.13;;;26.47;;
11568;SDS011;5840;46.894;15.542;2023-02-15T01:58:04;35.90;;;28.73;;
11568;SDS011;5840;46.894;15.542;2023-02-15T02:00:32;29.90;;;26.73;;
11568;SDS011;5840;46.894;15.542;2023-02-15T02:03:01;28.03;;;25.10;;
11568;SDS011;5840;46.894;15.542;2023-02-15T02:05:29;35.97;;;29.93;;
11568;SDS011;5840;46.894;15.542;2023-02-15T02:07:57;34.00;;;28.27;;
11568;SDS011;5840;46.894;15.542;2023-02-15T02:10:27;31.67;;;27.97;;
11568;SDS011;5840;46.894;15.542;2023-02-15T02:12:56;38.97;;;30.93;;
11568;SDS011;5840;46.894;15.542;2023-02-15T02:15:28;36.67;;;30.77;;
11568;SDS011;5840;46.894;15.542;2023-02-15T02:18:09;36.77;;;30.57;;
11568;SDS011;5840;46.894;15.542;2023-02-15T02:20:55;37.63;;;31.70;;
11568;SDS011;5840;46.894;15.542;2023-02-15T02:23:39;28.27;;;24.77;;
11568;SDS011;5840;46.894;15.542;2023-02-15T02:26:31;28.03;;;24.87;;
11568;SDS011;5840;46.894;15.542;2023-02-15T02:32:31;25.70;;;22.90;;
11568;SDS011;5840;46.894;15.542;2023-02-15T02:35:24;24.20;;;21.63;;
11568;SDS011;5840;46.894;15.542;2023-02-15T02:37:59;24.77;;;22.23;;
11568;SDS011;5840;46.894;15.542;2023-02-15T02:40:34;24.43;;;21.90;;
11568;SDS011;5840;46.894;15.542;2023-02-15T02:43:10;25.57;;;22.63;;
11568;SDS011;5840;46.894;15.542;2023-02-15T02:45:45;25.57;;;22.23;;
11568;SDS011;5840;46.894;15.542;2023-02-15T02:48:19;26.07;;;23.27;;
11568;SDS011;5840;46.894;15.542;2023-02-15T02:50:52;28.00;;;22.67;;
11568;SDS011;5840;46.894;15.542;2023-02-15T02:53:19;25.23;;;22.60;;
11568;SDS011;5840;46.894;15.542;2023-02-15T02:55:48;27.67;;;24.73;;
11568;SDS011;5840;46.894;15.542;2023-02-15T02:58:19;26.87;;;24.07;;
11568;SDS011;5840;46.894;15.542;2023-02-15T03:00:50;27.37;;;24.47;;
11568;SDS011;5840;46.894;15.542;2023-02-15T03:03:22;24.97;;;22.37;;
11568;SDS011;5840;46.894;15.542;2023-02-15T03:05:54;29.47;;;25.00;;
11568;SDS011;5840;46.894;15.542;2023-02-15T03:08:25;29.73;;;25.60;;
11568;SDS011;5840;46.894;15.542;2023-02-15T03:10:56;29.53;;;26.23;;
11568;SDS011;5840;46.894;15.542;2023-02-15T03:13:25;31.27;;;26.63;;
11568;SDS011;5840;46.894;15.542;2023-02-15T03:15:53;32.73;;;27.10;;
11568;SDS011;5840;46.894;15.542;2023-02-15T03:18:49;31.50;;;27.57;;
11568;SDS011;5840;46.894;15.542;2023-02-15T03:21:25;31.13;;;26.50;;
11568;SDS011;5840;46.894;15.542;2023-02-15T03:23:59;28.10;;;25.03;;
11568;SDS011;5840;46.894;15.542;2023-02-15T03:26:30;30.20;;;23.83;;
11568;SDS011;5840;46.894;15.542;2023-02-15T03:29:00;27.83;;;24.83;;
11568;SDS011;5840;46.894;15.542;2023-02-15T03:31:31;27.40;;;24.50;;
11568;SDS011;5840;46.894;15.542;2023-02-15T03:34:02;27.83;;;24.63;;
11568;SDS011;5840;46.894;15.542;2023-02-15T03:36:35;27.57;;;24.67;;
11568;SDS011;5840;46.894;15.542;2023-02-15T03:39:10;27.63;;;24.57;;
11568;SDS011;5840;46.894;15.542;2023-02-15T03:41:45;27.97;;;24.33;;
11568;SDS011;5840;46.894;15.542;2023-02-15T03:44:18;28.43;;;24.83;;
11568;SDS011;5840;46.894;15.542;2023-02-15T03:46:51;27.53;;;24.53;;
11568;SDS011;5840;46.894;15.542;2023-02-15T03:49:23;28.33;;;25.40;;
11568;SDS011;5840;46.894;15.542;2023-02-15T03:51:56;28.70;;;25.60;;
11568;SDS011;5840;46.894;15.542;2023-02-15T03:54:25;29.90;;;26.83;;
11568;SDS011;5840;46.894;15.542;2023-02-15T03:57:10;29.07;;;25.90;;
11568;SDS011;5840;46.894;15.542;2023-02-15T03:59:56;28.17;;;25.17;;
11568;SDS011;5840;46.894;15.542;2023-02-15T04:02:44;34.43;;;27.00;;
11568;SDS011;5840;46.894;15.542;2023-02-15T04:05:23;32.33;;;26.23;;
11568;SDS011;5840;46.894;15.542;2023-02-15T04:07:52;33.93;;;27.53;;
11568;SDS011;5840;46.894;15.542;2023-02-15T04:10:19;28.43;;;25.43;;
11568;SDS011;5840;46.894;15.542;2023-02-15T04:13:03;30.07;;;25.03;;
11568;SDS011;5840;46.894;15.542;2023-02-15T04:15:30;31.43;;;26.77;;
11568;SDS011;5840;46.894;15.542;2023-02-15T04:18:14;31.30;;;25.80;;
11568;SDS011;5840;46.894;15.542;2023-02-15T04:20:43;30.77;;;27.20;;
11568;SDS011;5840;46.894;15.542;2023-02-15T04:23:29;31.73;;;26.47;;
11568;SDS011;5840;46.894;15.542;2023-02-15T04:26:13;30.07;;;26.13;;
11568;SDS011;5840;46.894;15.542;2023-02-15T04:28:40;27.13;;;24.23;;
11568;SDS011;5840;46.894;15.542;2023-02-15T04:31:07;27.13;;;24.40;;
11568;SDS011;5840;46.894;15.542;2023-02-15T04:33:34;29.27;;;25.10;;
11568;SDS011;5840;46.894;15.542;2023-02-15T04:36:01;28.13;;;24.93;;
11568;SDS011;5840;46.894;15.542;2023-02-15T04:38:30;32.40;;;27.07;;
11568;SDS011;5840;46.894;15.542;2023-02-15T04:40:57;36.40;;;32.37;;
11568;SDS011;5840;46.894;15.542;2023-02-15T04:43:24;30.93;;;26.23;;
11568;SDS011;5840;46.894;15.542;2023-02-15T04:45:51;30.30;;;25.83;;
11568;SDS011;5840;46.894;15.542;2023-02-15T04:48:18;30.17;;;26.90;;
11568;SDS011;5840;46.894;15.542;2023-02-15T04:50:45;30.77;;;26.67;;
11568;SDS011;5840;46.894;15.542;2023-02-15T04:53:12;31.73;;;28.03;;
11568;SDS011;5840;46.894;15.542;2023-02-15T04:55:42;38.17;;;34.27;;
11568;SDS011;5840;46.894;15.542;2023-02-15T04:58:09;39.13;;;35.23;;
11568;SDS011;5840;46.894;15.542;2023-02-15T05:00:36;31.47;;;28.20;;
11568;SDS011;5840;46.894;15.542;2023-02-15T05:03:03;29.70;;;26.50;;
11568;SDS011;5840;46.894;15.542;2023-02-15T05:05:30;30.77;;;27.80;;
11568;SDS011;5840;46.894;15.542;2023-02-15T05:07:57;33.67;;;29.23;;
11568;SDS011;5840;46.894;15.542;2023-02-15T05:10:24;32.07;;;28.43;;
11568;SDS011;5840;46.894;15.542;2023-02-15T05:12:52;32.40;;;29.23;;
11568;SDS011;5840;46.894;15.542;2023-02-15T05:15:19;32.40;;;28.90;;
11568;SDS011;5840;46.894;15.542;2023-02-15T05:17:46;27.90;;;25.00;;
11568;SDS011;5840;46.894;15.542;2023-02-15T05:20:13;27.87;;;25.03;;
11568;SDS011;5840;46.894;15.542;2023-02-15T05:22:40;29.63;;;26.43;;
11568;SDS011;5840;46.894;15.542;2023-02-15T05:25:08;29.23;;;26.17;;
11568;SDS011;5840;46.894;15.542;2023-02-15T05:27:54;27.37;;;24.47;;
11568;SDS011;5840;46.894;15.542;2023-02-15T05:30:38;28.20;;;25.30;;
11568;SDS011;5840;46.894;15.542;2023-02-15T05:33:05;28.93;;;25.53;;
11568;SDS011;5840;46.894;15.542;2023-02-15T05:35:33;29.93;;;25.47;;
11568;SDS011;5840;46.894;15.542;2023-02-15T05:38:00;29.07;;;26.03;;
11568;SDS011;5840;46.894;15.542;2023-02-15T05:40:27;27.60;;;24.70;;
11568;SDS011;5840;46.894;15.542;2023-02-15T05:42:56;29.43;;;26.20;;
11568;SDS011;5840;46.894;15.542;2023-02-15T05:45:24;30.20;;;27.00;;
11568;SDS011;5840;46.894;15.542;2023-02-15T05:47:51;30.13;;;26.40;;
11568;SDS011;5840;46.894;15.542;2023-02-15T05:50:18;29.63;;;26.60;;
11568;SDS011;5840;46.894;15.542;2023-02-15T05:52:45;28.57;;;25.60;;
11568;SDS011;5840;46.894;15.542;2023-02-15T05:55:12;27.00;;;24.27;;
11568;SDS011;5840;46.894;15.542;2023-02-15T05:57:39;27.00;;;24.13;;
11568;SDS011;5840;46.894;15.542;2023-02-15T06:00:08;27.50;;;24.67;;
11568;SDS011;5840;46.894;15.542;2023-02-15T06:02:36;36.50;;;29.37;;
11568;SDS011;5840;46.894;15.542;2023-02-15T06:05:04;31.67;;;28.23;;
11568;SDS011;5840;46.894;15.542;2023-02-15T06:07:31;28.60;;;25.70;;
11568;SDS011;5840;46.894;15.542;2023-02-15T06:09:58;30.10;;;26.37;;
11568;SDS011;5840;46.894;15.542;2023-02-15T06:12:25;29.90;;;26.60;;
11568;SDS011;5840;46.894;15.542;2023-02-15T06:14:52;31.03;;;26.90;;
11568;SDS011;5840;46.894;15.542;2023-02-15T06:17:21;31.63;;;28.33;;
11568;SDS011;5840;46.894;15.542;2023-02-15T06:19:48;31.17;;;26.43;;
11568;SDS011;5840;46.894;15.542;2023-02-15T06:22:15;30.53;;;27.37;;
11568;SDS011;5840;46.894;15.542;2023-02-15T06:24:41;28.20;;;25.27;;
11568;SDS011;5840;46.894;15.542;2023-02-15T06:27:08;29.70;;;26.60;;
11568;SDS011;5840;46.894;15.542;2023-02-15T06:29:36;28.60;;;25.70;;
11568;SDS011;5840;46.894;15.542;2023-02-15T06:32:03;28.90;;;25.20;;
11568;SDS011;5840;46.894;15.542;2023-02-15T06:34:32;27.17;;;24.37;;
11568;SDS011;5840;46.894;15.542;2023-02-15T06:36:59;29.67;;;25.27;;
11568;SDS011;5840;46.894;15.542;2023-02-15T06:39:26;31.47;;;26.60;;
11568;SDS011;5840;46.894;15.542;2023-02-15T06:41:53;27.87;;;24.93;;
11568;SDS011;5840;46.894;15.542;2023-02-15T06:44:20;30.07;;;26.90;;
11568;SDS011;5840;46.894;15.542;2023-02-15T06:46:47;30.00;;;26.83;;
11568;SDS011;5840;46.894;15.542;2023-02-15T06:49:13;30.60;;;26.73;;
11568;SDS011;5840;46.894;15.542;2023-02-15T06:51:42;30.43;;;27.13;;
11568;SDS011;5840;46.894;15.542;2023-02-15T06:54:09;29.23;;;26.20;;
11568;SDS011;5840;46.894;15.542;2023-02-15T06:56:36;28.97;;;25.87;;
11568;SDS011;5840;46.894;15.542;2023-02-15T06:59:03;29.60;;;25.77;;
11568;SDS011;5840;46.894;15.542;2023-02-15T07:01:30;29.83;;;26.30;;
11568;SDS011;5840;46.894;15.542;2023-02-15T07:03:57;31.97;;;28.37;;
11568;SDS011;5840;46.894;15.542;2023-02-15T07:06:24;32.93;;;29.10;;
11568;SDS011;5840;46.894;15.542;2023-02-15T07:08:52;29.90;;;26.80;;
11568;SDS011;5840;46.894;15.542;2023-02-15T07:11:19;26.93;;;23.77;;
11568;SDS011;5840;46.894;15.542;2023-02-15T07:14:04;30.90;;;27.73;;
11568;SDS011;5840;46.894;15.542;2023-02-15T07:16:31;33.33;;;29.17;;
11568;SDS011;5840;46.894;15.542;2023-02-15T07:18:58;36.10;;;30.80;;
11568;SDS011;5840;46.894;15.542;2023-02-15T07:21:25;38.37;;;30.83;;
11568;SDS011;5840;46.894;15.542;2023-02-15T07:23:55;40.27;;;32.57;;
11568;SDS011;5840;46.894;15.542;2023-02-15T07:26:22;36.77;;;30.23;;
11568;SDS011;5840;46.894;15.542;2023-02-15T07:28:49;32.20;;;28.33;;
11568;SDS011;5840;46.894;15.542;2023-02-15T07:31:16;35.63;;;28.83;;
11568;SDS011;5840;46.894;15.542;2023-02-15T07:33:43;30.50;;;27.40;;
11568;SDS011;5840;46.894;15.542;2023-02-15T07:36:10;32.17;;;28.60;;
11568;SDS011;5840;46.894;15.542;2023-02-15T07:38:38;31.93;;;28.63;;
11568;SDS011;5840;46.894;15.542;2023-02-15T07:41:07;30.77;;;27.57;;
11568;SDS011;5840;46.894;15.542;2023-02-15T07:43:36;29.53;;;26.53;;
11568;SDS011;5840;46.894;15.542;2023-02-15T07:46:05;33.17;;;29.57;;
11568;SDS011;5840;46.894;15.542;2023-02-15T07:48:34;32.33;;;28.93;;
11568;SDS011;5840;46.894;15.542;2023-02-15T07:51:02;33.27;;;29.03;;
11568;SDS011;5840;46.894;15.542;2023-02-15T07:53:31;32.90;;;29.40;;
11568;SDS011;5840;46.894;15.542;2023-02-15T07:55:58;32.13;;;28.83;;
11568;SDS011;5840;46.894;15.542;2023-02-15T07:58:27;32.73;;;29.17;;
11568;SDS011;5840;46.894;15.542;2023-02-15T08:01:07;33.33;;;29.73;;
11568;SDS011;5840;46.894;15.542;2023-02-15T08:03:34;33.47;;;28.97;;
11568;SDS011;5840;46.894;15.542;2023-02-15T08:06:01;34.97;;;29.63;;
11568;SDS011;5840;46.894;15.542;2023-02-15T08:08:28;35.80;;;30.77;;
11568;SDS011;5840;46.894;15.542;2023-02-15T08:10:59;38.37;;;30.00;;
11568;SDS011;5840;46.894;15.542;2023-02-15T08:13:47;37.43;;;29.77;;
11568;SDS011;5840;46.894;15.542;2023-02-15T08:16:24;36.90;;;32.57;;
11568;SDS011;5840;46.894;15.542;2023-02-15T08:18:53;34.07;;;30.47;;
11568;SDS011;5840;46.894;15.542;2023-02-15T08:21:21;35.17;;;31.37;;
11568;SDS011;5840;46.894;15.542;2023-02-15T08:23:48;36.13;;;31.17;;
11568;SDS011;5840;46.894;15.542;2023-02-15T08:26:15;35.40;;;30.33;;
11568;SDS011;5840;46.894;15.542;2023-02-15T08:28:42;35.77;;;32.00;;
11568;SDS011;5840;46.894;15.542;2023-02-15T08:31:13;36.47;;;30.37;;
11568;SDS011;5840;46.894;15.542;2023-02-15T08:33:41;42.20;;;32.60;;
11568;SDS011;5840;46.894;15.542;2023-02-15T08:36:10;42.83;;;32.70;;
11568;SDS011;5840;46.894;15.542;2023-02-15T08:38:38;40.63;;;32.63;;
11568;SDS011;5840;46.894;15.542;2023-02-15T08:41:13;39.27;;;31.23;;
11568;SDS011;5840;46.894;15.542;2023-02-15T08:43:41;41.73;;;33.63;;
11568;SDS011;5840;46.894;15.542;2023-02-15T08:46:09;44.70;;;34.07;;
11568;SDS011;5840;46.894;15.542;2023-02-15T08:48:38;43.57;;;32.50;;
11568;SDS011;5840;46.894;15.542;2023-02-15T08:51:06;43.40;;;33.03;;
11568;SDS011;5840;46.894;15.542;2023-02-15T08:53:36;42.70;;;33.60;;
11568;SDS011;5840;46.894;15.542;2023-02-15T08:56:05;43.27;;;32.87;;
11568;SDS011;5840;46.894;15.542;2023-02-15T08:58:32;43.60;;;33.07;;
11568;SDS011;5840;46.894;15.542;2023-02-15T09:00:59;44.87;;;34.17;;
11568;SDS011;5840;46.894;15.542;2023-02-15T09:03:28;40.53;;;30.80;;
11568;SDS011;5840;46.894;15.542;2023-02-15T09:06:00;43.60;;;33.20;;
11568;SDS011;5840;46.894;15.542;2023-02-15T09:08:27;42.93;;;33.37;;
11568;SDS011;5840;46.894;15.542;2023-02-15T09:11:03;47.13;;;34.20;;
11568;SDS011;5840;46.894;15.542;2023-02-15T09:13:31;45.93;;;33.30;;
11568;SDS011;5840;46.894;15.542;2023-02-15T09:15:59;43.47;;;32.23;;
11568;SDS011;5840;46.894;15.542;2023-02-15T09:18:26;43.87;;;34.20;;
11568;SDS011;5840;46.894;15.542;2023-02-15T09:20:53;44.90;;;35.10;;
11568;SDS011;5840;46.894;15.542;2023-02-15T09:23:22;45.60;;;35.47;;
11568;SDS011;5840;46.894;15.542;2023-02-15T09:25:49;44.40;;;33.87;;
11568;SDS011;5840;46.894;15.542;2023-02-15T09:28:16;44.10;;;33.63;;
11568;SDS011;5840;46.894;15.542;2023-02-15T09:30:43;41.87;;;32.93;;
11568;SDS011;5840;46.894;15.542;2023-02-15T09:33:10;47.17;;;35.33;;
11568;SDS011;5840;46.894;15.542;2023-02-15T09:35:37;50.47;;;33.50;;
11568;SDS011;5840;46.894;15.542;2023-02-15T09:38:04;46.57;;;33.47;;
11568;SDS011;5840;46.894;15.542;2023-02-15T09:40:33;44.83;;;33.20;;
11568;SDS011;5840;46.894;15.542;2023-02-15T09:43:10;44.73;;;33.13;;
11568;SDS011;5840;46.894;15.542;2023-02-15T09:45:57;51.70;;;35.37;;
11568;SDS011;5840;46.894;15.542;2023-02-15T09:48:38;47.47;;;35.93;;
11568;SDS011;5840;46.894;15.542;2023-02-15T09:51:19;49.67;;;35.57;;
11568;SDS011;5840;46.894;15.542;2023-02-15T09:54:17;51.27;;;35.83;;
11568;SDS011;5840;46.894;15.542;2023-02-15T09:56:55;51.53;;;35.10;;
11568;SDS011;5840;46.894;15.542;2023-02-15T09:59:27;56.60;;;36.97;;
11568;SDS011;5840;46.894;15.542;2023-02-15T10:02:03;46.57;;;34.63;;
11568;SDS011;5840;46.894;15.542;2023-02-15T10:04:46;54.80;;;36.43;;
11568;SDS011;5840;46.894;15.542;2023-02-15T10:07:26;52.17;;;35.10;;
11568;SDS011;5840;46.894;15.542;2023-02-15T10:10:10;53.00;;;35.50;;
11568;SDS011;5840;46.894;15.542;2023-02-15T10:12:53;55.13;;;36.20;;
11568;SDS011;5840;46.894;15.542;2023-02-15T10:15:34;49.50;;;35.20;;
11568;SDS011;5840;46.894;15.542;2023-02-15T10:18:27;51.47;;;35.37;;
11568;SDS011;5840;46.894;15.542;2023-02-15T10:21:03;49.47;;;34.73;;
11568;SDS011;5840;46.894;15.542;2023-02-15T10:23:43;47.27;;;33.40;;
11568;SDS011;5840;46.894;15.542;2023-02-15T10:26:26;51.80;;;34.67;;
11568;SDS011;5840;46.894;15.542;2023-02-15T10:29:02;52.47;;;34.90;;
11568;SDS011;5840;46.894;15.542;2023-02-15T10:31:34;47.40;;;33.00;;
11568;SDS011;5840;46.894;15.542;2023-02-15T10:34:15;51.03;;;34.17;;
11568;SDS011;5840;46.894;15.542;2023-02-15T10:36:53;54.27;;;35.70;;
11568;SDS011;5840;46.894;15.542;2023-02-15T10:39:37;48.90;;;34.60;;
11568;SDS011;5840;46.894;15.542;2023-02-15T10:42:15;53.13;;;34.57;;
11568;SDS011;5840;46.894;15.542;2023-02-15T10:44:58;49.30;;;33.70;;
11568;SDS011;5840;46.894;15.542;2023-02-15T10:47:39;47.57;;;32.90;;
11568;SDS011;5840;46.894;15.542;2023-02-15T10:50:21;48.97;;;33.70;;
11568;SDS011;5840;46.894;15.542;2023-02-15T10:53:05;47.97;;;33.77;;
11568;SDS011;5840;46.894;15.542;2023-02-15T10:55:46;45.97;;;33.63;;
11568;SDS011;5840;46.894;15.542;2023-02-15T10:58:24;46.40;;;32.97;;
11568;SDS011;5840;46.894;15.542;2023-02-15T11:01:06;48.53;;;34.07;;
11568;SDS011;5840;46.894;15.542;2023-02-15T11:06:46;47.07;;;33.43;;
11568;SDS011;5840;46.894;15.542;2023-02-15T11:09:17;45.00;;;33.40;;
11568;SDS011;5840;46.894;15.542;2023-02-15T11:11:47;48.00;;;34.33;;
11568;SDS011;5840;46.894;15.542;2023-02-15T11:14:17;49.07;;;34.77;;
11568;SDS011;5840;46.894;15.542;2023-02-15T11:16:52;45.20;;;31.40;;
11568;SDS011;5840;46.894;15.542;2023-02-15T11:19:23;47.90;;;34.33;;
11568;SDS011;5840;46.894;15.542;2023-02-15T11:21:57;45.37;;;34.57;;
11568;SDS011;5840;46.894;15.542;2023-02-15T11:24:26;45.97;;;33.27;;
11568;SDS011;5840;46.894;15.542;2023-02-15T11:26:56;43.70;;;32.90;;
11568;SDS011;5840;46.894;15.542;2023-02-15T11:29:28;45.00;;;34.33;;
11568;SDS011;5840;46.894;15.542;2023-02-15T11:32:01;50.00;;;35.73;;
11568;SDS011;5840;46.894;15.542;2023-02-15T11:34:49;45.70;;;32.63;;
11568;SDS011;5840;46.894;15.542;2023-02-15T11:37:18;44.93;;;33.13;;
11568;SDS011;5840;46.894;15.542;2023-02-15T11:39:54;51.10;;;35.43;;
11568;SDS011;5840;46.894;15.542;2023-02-15T11:42:22;47.20;;;33.07;;
11568;SDS011;5840;46.894;15.542;2023-02-15T11:44:54;48.43;;;34.47;;
11568;SDS011;5840;46.894;15.542;2023-02-15T11:47:26;44.50;;;33.20;;
11568;SDS011;5840;46.894;15.542;2023-02-15T11:49:53;44.87;;;32.83;;
11568;SDS011;5840;46.894;15.542;2023-02-15T11:52:20;51.80;;;35.00;;
11568;SDS011;5840;46.894;15.542;2023-02-15T11:54:49;46.27;;;34.43;;
11568;SDS011;5840;46.894;15.542;2023-02-15T11:57:17;43.53;;;33.67;;
11568;SDS011;5840;46.894;15.542;2023-02-15T11:59:50;49.07;;;35.33;;
11568;SDS011;5840;46.894;15.542;2023-02-15T12:02:22;48.70;;;33.67;;
11568;SDS011;5840;46.894;15.542;2023-02-15T12:04:53;47.37;;;33.37;;
11568;SDS011;5840;46.894;15.542;2023-02-15T12:07:24;46.47;;;33.23;;
11568;SDS011;5840;46.894;15.542;2023-02-15T12:09:56;52.63;;;34.93;;
11568;SDS011;5840;46.894;15.542;2023-02-15T12:12:32;47.93;;;33.87;;
11568;SDS011;5840;46.894;15.542;2023-02-15T12:15:00;47.73;;;33.47;;
11568;SDS011;5840;46.894;15.542;2023-02-15T12:17:28;46.57;;;33.57;;
11568;SDS011;5840;46.894;15.542;2023-02-15T12:19:59;50.03;;;34.57;;
11568;SDS011;5840;46.894;15.542;2023-02-15T12:22:29;50.90;;;33.90;;
11568;SDS011;5840;46.894;15.542;2023-02-15T12:24:58;51.83;;;35.30;;
11568;SDS011;5840;46.894;15.542;2023-02-15T12:27:28;48.37;;;34.70;;
11568;SDS011;5840;46.894;15.542;2023-02-15T12:29:58;49.60;;;35.53;;
11568;SDS011;5840;46.894;15.542;2023-02-15T12:32:28;52.80;;;35.40;;
11568;SDS011;5840;46.894;15.542;2023-02-15T12:35:01;48.77;;;35.03;;
11568;SDS011;5840;46.894;15.542;2023-02-15T12:37:34;52.77;;;36.20;;
11568;SDS011;5840;46.894;15.542;2023-02-15T12:40:02;51.03;;;35.17;;
11568;SDS011;5840;46.894;15.542;2023-02-15T12:42:45;49.03;;;34.90;;
11568;SDS011;5840;46.894;15.542;2023-02-15T12:45:23;46.67;;;35.00;;
11568;SDS011;5840;46.894;15.542;2023-02-15T12:48:13;49.07;;;34.43;;
11568;SDS011;5840;46.894;15.542;2023-02-15T12:50:43;49.27;;;34.47;;
11568;SDS011;5840;46.894;15.542;2023-02-15T12:53:14;50.07;;;34.87;;
11568;SDS011;5840;46.894;15.542;2023-02-15T12:55:53;50.93;;;33.93;;
11568;SDS011;5840;46.894;15.542;2023-02-15T12:58:21;52.40;;;35.80;;
11568;SDS011;5840;46.894;15.542;2023-02-15T13:01:01;50.63;;;35.37;;
11568;SDS011;5840;46.894;15.542;2023-02-15T13:03:31;51.40;;;35.77;;
11568;SDS011;5840;46.894;15.542;2023-02-15T13:05:59;51.43;;;34.10;;
11568;SDS011;5840;46.894;15.542;2023-02-15T13:08:33;50.73;;;33.93;;
11568;SDS011;5840;46.894;15.542;2023-02-15T13:11:06;47.63;;;33.00;;
11568;SDS011;5840;46.894;15.542;2023-02-15T13:13:35;52.03;;;35.47;;
11568;SDS011;5840;46.894;15.542;2023-02-15T13:16:13;51.27;;;35.83;;
11568;SDS011;5840;46.894;15.542;2023-02-15T13:18:42;47.77;;;33.87;;
11568;SDS011;5840;46.894;15.542;2023-02-15T13:21:14;46.07;;;33.50;;
11568;SDS011;5840;46.894;15.542;2023-02-15T13:23:45;46.67;;;33.10;;
11568;SDS011;5840;46.894;15.542;2023-02-15T13:26:18;46.37;;;34.23;;
11568;SDS011;5840;46.894;15.542;2023-02-15T13:28:48;43.70;;;33.43;;
11568;SDS011;5840;46.894;15.542;2023-02-15T13:31:19;42.97;;;32.33;;
11568;SDS011;5840;46.894;15.542;2023-02-15T13:33:48;43.67;;;31.10;;
11568;SDS011;5840;46.894;15.542;2023-02-15T13:36:20;43.90;;;31.80;;
11568;SDS011;5840;46.894;15.542;2023-02-15T13:41:48;43.03;;;32.93;;
11568;SDS011;5840;46.894;15.542;2023-02-15T13:44:25;41.87;;;31.87;;
11568;SDS011;5840;46.894;15.542;2023-02-15T13:47:16;42.53;;;31.60;;
11568;SDS011;5840;46.894;15.542;2023-02-15T13:49:51;42.63;;;31.90;;
11568;SDS011;5840;46.894;15.542;2023-02-15T13:52:30;39.70;;;29.93;;
11568;SDS011;5840;46.894;15.542;2023-02-15T13:55:22;39.87;;;31.40;;
11568;SDS011;5840;46.894;15.542;2023-02-15T13:58:08;38.63;;;30.17;;
11568;SDS011;5840;46.894;15.542;2023-02-15T14:01:01;36.37;;;28.93;;
11568;SDS011;5840;46.894;15.542;2023-02-15T14:03:42;36.47;;;29.50;;
11568;SDS011;5840;46.894;15.542;2023-02-15T14:06:28;37.13;;;29.73;;
11568;SDS011;5840;46.894;15.542;2023-02-15T14:09:17;36.10;;;29.23;;
11568;SDS011;5840;46.894;15.542;2023-02-15T14:11:53;36.53;;;28.47;;
11568;SDS011;5840;46.894;15.542;2023-02-15T14:14:37;38.33;;;29.37;;
11568;SDS011;5840;46.894;15.542;2023-02-15T14:17:20;34.63;;;27.87;;
11568;SDS011;5840;46.894;15.542;2023-02-15T14:19:53;35.53;;;30.07;;
11568;SDS011;5840;46.894;15.542;2023-02-15T14:22:26;37.23;;;29.07;;
11568;SDS011;5840;46.894;15.542;2023-02-15T14:25:02;35.40;;;28.20;;
11568;SDS011;5840;46.894;15.542;2023-02-15T14:27:44;37.43;;;30.00;;
11568;SDS011;5840;46.894;15.542;2023-02-15T14:30:20;37.93;;;30.57;;
11568;SDS011;5840;46.894;15.542;2023-02-15T14:32:50;38.40;;;29.40;;
11568;SDS011;5840;46.894;15.542;2023-02-15T14:35:21;38.17;;;30.00;;
11568;SDS011;5840;46.894;15.542;2023-02-15T14:37:53;36.90;;;29.57;;
11568;SDS011;5840;46.894;15.542;2023-02-15T14:40:32;34.40;;;28.47;;
11568;SDS011;5840;46.894;15.542;2023-02-15T14:43:24;38.87;;;31.47;;
11568;SDS011;5840;46.894;15.542;2023-02-15T14:46:01;36.07;;;29.47;;
11568;SDS011;5840;46.894;15.542;2023-02-15T14:48:38;36.00;;;29.37;;
11568;SDS011;5840;46.894;15.542;2023-02-15T14:51:09;39.40;;;30.23;;
11568;SDS011;5840;46.894;15.542;2023-02-15T14:53:37;41.33;;;30.70;;
11568;SDS011;5840;46.894;15.542;2023-02-15T14:56:18;36.20;;;30.43;;
11568;SDS011;5840;46.894;15.542;2023-02-15T15:01:42;38.63;;;30.50;;